sensor_id;sensor_type;location;lat;lon;timestamp;temperature;humidity
43049;DHT22;28673;44.412;11.918;2023-08-12T00:01:49;22.20;95.70
43049;DHT22;28673;44.412;11.918;2023-08-12T00:04:15;22.20;95.60
43049;DHT22;28673;44.412;11.918;2023-08-12T00:06:42;22.20;95.60
43049;DHT22;28673;44.412;11.918;2023-08-12T00:09:08;22.20;95.60
43049;DHT22;28673;44.412;11.918;2023-08-12T00:11:35;22.10;95.60
43049;DHT22;28673;44.412;11.918;2023-08-12T00:14:01;22.10;95.70
43049;DHT22;28673;44.412;11.918;2023-08-12T00:16:27;22.00;95.70
43049;DHT22;28673;44.412;11.918;2023-08-12T00:18:54;22.00;95.80
43049;DHT22;28673;44.412;11.918;2023-08-12T00:21:19;21.90;95.80
43049;DHT22;28673;44.412;11.918;2023-08-12T00:23:45;21.90;95.90
43049;DHT22;28673;44.412;11.918;2023-08-12T00:26:13;21.80;95.90
43049;DHT22;28673;44.412;11.918;2023-08-12T00:28:39;21.80;95.90
43049;DHT22;28673;44.412;11.918;2023-08-12T00:31:05;21.80;95.90
43049;DHT22;28673;44.412;11.918;2023-08-12T00:33:30;21.80;95.90
43049;DHT22;28673;44.412;11.918;2023-08-12T00:35:56;21.80;95.90
43049;DHT22;28673;44.412;11.918;2023-08-12T00:38:22;21.80;95.90
43049;DHT22;28673;44.412;11.918;2023-08-12T00:40:48;21.70;95.90
43049;DHT22;28673;44.412;11.918;2023-08-12T00:43:14;21.70;95.90
43049;DHT22;28673;44.412;11.918;2023-08-12T00:45:40;21.70;95.90
43049;DHT22;28673;44.412;11.918;2023-08-12T00:48:08;21.60;95.90
43049;DHT22;28673;44.412;11.918;2023-08-12T00:50:36;21.50;96.00
43049;DHT22;28673;44.412;11.918;2023-08-12T00:53:02;21.50;96.00
43049;DHT22;28673;44.412;11.918;2023-08-12T00:55:28;21.50;96.10
43049;DHT22;28673;44.412;11.918;2023-08-12T00:57:53;21.50;96.20
43049;DHT22;28673;44.412;11.918;2023-08-12T01:00:19;21.50;96.20
43049;DHT22;28673;44.412;11.918;2023-08-12T01:02:47;21.50;96.20
43049;DHT22;28673;44.412;11.918;2023-08-12T01:05:14;21.50;96.20
43049;DHT22;28673;44.412;11.918;2023-08-12T01:07:42;21.40;96.20
43049;DHT22;28673;44.412;11.918;2023-08-12T01:10:08;21.40;96.20
43049;DHT22;28673;44.412;11.918;2023-08-12T01:13:02;21.30;96.20
43049;DHT22;28673;44.412;11.918;2023-08-12T01:15:33;21.30;96.40
43049;DHT22;28673;44.412;11.918;2023-08-12T01:18:00;21.20;96.20
43049;DHT22;28673;44.412;11.918;2023-08-12T01:20:28;21.20;96.30
43049;DHT22;28673;44.412;11.918;2023-08-12T01:23:10;21.10;96.60
43049;DHT22;28673;44.412;11.918;2023-08-12T01:25:36;21.10;96.60
43049;DHT22;28673;44.412;11.918;2023-08-12T01:28:02;21.10;96.50
43049;DHT22;28673;44.412;11.918;2023-08-12T01:30:29;21.10;96.50
43049;DHT22;28673;44.412;11.918;2023-08-12T01:33:18;21.00;96.40
43049;DHT22;28673;44.412;11.918;2023-08-12T01:36:04;21.00;96.60
43049;DHT22;28673;44.412;11.918;2023-08-12T01:38:34;21.00;96.60
43049;DHT22;28673;44.412;11.918;2023-08-12T01:41:01;20.90;96.50
43049;DHT22;28673;44.412;11.918;2023-08-12T01:43:28;20.90;96.60
43049;DHT22;28673;44.412;11.918;2023-08-12T01:45:54;20.80;96.60
43049;DHT22;28673;44.412;11.918;2023-08-12T01:48:20;20.80;96.70
43049;DHT22;28673;44.412;11.918;2023-08-12T01:50:48;20.70;96.80
43049;DHT22;28673;44.412;11.918;2023-08-12T01:53:14;20.70;96.90
43049;DHT22;28673;44.412;11.918;2023-08-12T01:55:43;20.70;97.00
43049;DHT22;28673;44.412;11.918;2023-08-12T01:58:09;20.70;97.00
43049;DHT22;28673;44.412;11.918;2023-08-12T02:00:35;20.70;97.00
43049;DHT22;28673;44.412;11.918;2023-08-12T02:03:01;20.70;97.00
43049;DHT22;28673;44.412;11.918;2023-08-12T02:05:27;20.70;97.00
43049;DHT22;28673;44.412;11.918;2023-08-12T02:07:53;20.60;97.00
43049;DHT22;28673;44.412;11.918;2023-08-12T02:10:19;20.60;97.10
43049;DHT22;28673;44.412;11.918;2023-08-12T02:12:44;20.60;97.10
43049;DHT22;28673;44.412;11.918;2023-08-12T02:15:11;20.50;97.10
43049;DHT22;28673;44.412;11.918;2023-08-12T02:17:37;20.40;97.20
43049;DHT22;28673;44.412;11.918;2023-08-12T02:20:03;20.40;97.30
43049;DHT22;28673;44.412;11.918;2023-08-12T02:22:29;20.40;97.40
43049;DHT22;28673;44.412;11.918;2023-08-12T02:24:55;20.40;97.50
43049;DHT22;28673;44.412;11.918;2023-08-12T02:27:21;20.40;97.50
43049;DHT22;28673;44.412;11.918;2023-08-12T02:29:47;20.40;97.50
43049;DHT22;28673;44.412;11.918;2023-08-12T02:32:13;20.40;97.60
43049;DHT22;28673;44.412;11.918;2023-08-12T02:34:38;20.40;97.60
43049;DHT22;28673;44.412;11.918;2023-08-12T02:37:04;20.30;97.60
43049;DHT22;28673;44.412;11.918;2023-08-12T02:39:30;20.30;97.70
43049;DHT22;28673;44.412;11.918;2023-08-12T02:41:56;20.30;97.70
43049;DHT22;28673;44.412;11.918;2023-08-12T02:44:22;20.20;97.70
43049;DHT22;28673;44.412;11.918;2023-08-12T02:46:48;20.20;97.80
43049;DHT22;28673;44.412;11.918;2023-08-12T02:49:14;20.20;97.90
43049;DHT22;28673;44.412;11.918;2023-08-12T02:51:39;20.10;98.00
43049;DHT22;28673;44.412;11.918;2023-08-12T02:54:05;20.10;98.10
43049;DHT22;28673;44.412;11.918;2023-08-12T02:56:31;20.10;98.10
43049;DHT22;28673;44.412;11.918;2023-08-12T02:58:57;20.10;98.00
43049;DHT22;28673;44.412;11.918;2023-08-12T03:01:23;20.10;98.00
43049;DHT22;28673;44.412;11.918;2023-08-12T03:03:50;20.10;98.00
43049;DHT22;28673;44.412;11.918;2023-08-12T03:06:16;20.00;98.00
43049;DHT22;28673;44.412;11.918;2023-08-12T03:08:42;20.00;98.10
43049;DHT22;28673;44.412;11.918;2023-08-12T03:11:08;19.90;98.10
43049;DHT22;28673;44.412;11.918;2023-08-12T03:13:34;19.90;98.10
43049;DHT22;28673;44.412;11.918;2023-08-12T03:16:01;19.80;98.10
43049;DHT22;28673;44.412;11.918;2023-08-12T03:18:27;19.80;98.30
43049;DHT22;28673;44.412;11.918;2023-08-12T03:20:54;19.80;98.40
43049;DHT22;28673;44.412;11.918;2023-08-12T03:23:23;19.80;98.40
43049;DHT22;28673;44.412;11.918;2023-08-12T03:25:49;19.80;98.40
43049;DHT22;28673;44.412;11.918;2023-08-12T03:28:16;19.80;98.40
43049;DHT22;28673;44.412;11.918;2023-08-12T03:30:42;19.80;98.40
43049;DHT22;28673;44.412;11.918;2023-08-12T03:33:09;19.70;98.40
43049;DHT22;28673;44.412;11.918;2023-08-12T03:35:36;19.70;98.50
43049;DHT22;28673;44.412;11.918;2023-08-12T03:38:02;19.70;98.50
43049;DHT22;28673;44.412;11.918;2023-08-12T03:40:28;19.60;98.50
43049;DHT22;28673;44.412;11.918;2023-08-12T03:42:54;19.60;98.50
43049;DHT22;28673;44.412;11.918;2023-08-12T03:45:23;19.60;98.60
43049;DHT22;28673;44.412;11.918;2023-08-12T03:47:49;19.50;98.70
43049;DHT22;28673;44.412;11.918;2023-08-12T03:50:15;19.50;98.80
43049;DHT22;28673;44.412;11.918;2023-08-12T03:52:41;19.50;98.90
43049;DHT22;28673;44.412;11.918;2023-08-12T03:55:08;19.50;98.90
43049;DHT22;28673;44.412;11.918;2023-08-12T03:57:34;19.50;98.90
43049;DHT22;28673;44.412;11.918;2023-08-12T04:00:00;19.50;98.90
43049;DHT22;28673;44.412;11.918;2023-08-12T04:02:27;19.50;98.90
43049;DHT22;28673;44.412;11.918;2023-08-12T04:04:53;19.50;98.90
43049;DHT22;28673;44.412;11.918;2023-08-12T04:07:19;19.50;99.00
43049;DHT22;28673;44.412;11.918;2023-08-12T04:09:44;19.40;99.00
43049;DHT22;28673;44.412;11.918;2023-08-12T04:12:10;19.40;99.10
43049;DHT22;28673;44.412;11.918;2023-08-12T04:14:36;19.30;99.10
43049;DHT22;28673;44.412;11.918;2023-08-12T04:17:02;19.30;99.20
43049;DHT22;28673;44.412;11.918;2023-08-12T04:19:28;19.30;99.30
43049;DHT22;28673;44.412;11.918;2023-08-12T04:21:53;19.40;99.40
43049;DHT22;28673;44.412;11.918;2023-08-12T04:24:19;19.40;99.40
43049;DHT22;28673;44.412;11.918;2023-08-12T04:26:46;19.40;99.30
43049;DHT22;28673;44.412;11.918;2023-08-12T04:29:12;19.40;99.30
43049;DHT22;28673;44.412;11.918;2023-08-12T04:31:40;19.40;99.40
43049;DHT22;28673;44.412;11.918;2023-08-12T04:34:06;19.40;99.40
43049;DHT22;28673;44.412;11.918;2023-08-12T04:36:32;19.40;99.40
43049;DHT22;28673;44.412;11.918;2023-08-12T04:39:01;19.40;99.50
43049;DHT22;28673;44.412;11.918;2023-08-12T04:41:27;19.40;99.50
43049;DHT22;28673;44.412;11.918;2023-08-12T04:43:54;19.30;99.60
43049;DHT22;28673;44.412;11.918;2023-08-12T04:46:24;19.30;99.60
43049;DHT22;28673;44.412;11.918;2023-08-12T04:48:51;19.30;99.70
43049;DHT22;28673;44.412;11.918;2023-08-12T04:51:17;19.40;99.70
43049;DHT22;28673;44.412;11.918;2023-08-12T04:53:43;19.40;99.70
43049;DHT22;28673;44.412;11.918;2023-08-12T04:56:09;19.40;99.70
43049;DHT22;28673;44.412;11.918;2023-08-12T04:58:35;19.40;99.70
43049;DHT22;28673;44.412;11.918;2023-08-12T05:01:01;19.50;99.70
43049;DHT22;28673;44.412;11.918;2023-08-12T05:03:29;19.40;99.60
43049;DHT22;28673;44.412;11.918;2023-08-12T05:05:56;19.50;99.60
43049;DHT22;28673;44.412;11.918;2023-08-12T05:08:25;19.40;99.70
43049;DHT22;28673;44.412;11.918;2023-08-12T05:10:51;19.30;99.80
43049;DHT22;28673;44.412;11.918;2023-08-12T05:13:17;19.30;99.80
43049;DHT22;28673;44.412;11.918;2023-08-12T05:15:47;19.30;99.90
43049;DHT22;28673;44.412;11.918;2023-08-12T05:18:16;19.40;99.90
43049;DHT22;28673;44.412;11.918;2023-08-12T05:20:42;19.40;99.90
43049;DHT22;28673;44.412;11.918;2023-08-12T05:23:09;19.50;99.90
43049;DHT22;28673;44.412;11.918;2023-08-12T05:25:35;19.50;99.90
43049;DHT22;28673;44.412;11.918;2023-08-12T05:28:01;19.60;99.90
43049;DHT22;28673;44.412;11.918;2023-08-12T05:30:26;19.60;99.90
43049;DHT22;28673;44.412;11.918;2023-08-12T05:32:52;19.70;99.90
43049;DHT22;28673;44.412;11.918;2023-08-12T05:35:18;19.70;99.90
43049;DHT22;28673;44.412;11.918;2023-08-12T05:37:44;19.80;99.90
43049;DHT22;28673;44.412;11.918;2023-08-12T05:40:10;19.80;99.90
43049;DHT22;28673;44.412;11.918;2023-08-12T05:42:37;19.90;99.90
43049;DHT22;28673;44.412;11.918;2023-08-12T05:45:03;19.90;99.90
43049;DHT22;28673;44.412;11.918;2023-08-12T05:47:29;20.00;99.90
43049;DHT22;28673;44.412;11.918;2023-08-12T05:49:55;20.10;99.90
43049;DHT22;28673;44.412;11.918;2023-08-12T05:52:21;20.20;99.90
43049;DHT22;28673;44.412;11.918;2023-08-12T05:54:47;20.20;99.90
43049;DHT22;28673;44.412;11.918;2023-08-12T05:57:13;20.30;99.90
43049;DHT22;28673;44.412;11.918;2023-08-12T05:59:41;20.40;99.90
43049;DHT22;28673;44.412;11.918;2023-08-12T06:02:06;20.40;99.90
43049;DHT22;28673;44.412;11.918;2023-08-12T06:04:32;20.50;99.90
43049;DHT22;28673;44.412;11.918;2023-08-12T06:06:58;20.60;99.90
43049;DHT22;28673;44.412;11.918;2023-08-12T06:09:24;20.70;99.90
43049;DHT22;28673;44.412;11.918;2023-08-12T06:11:50;20.80;99.90
43049;DHT22;28673;44.412;11.918;2023-08-12T06:14:16;20.90;99.90
43049;DHT22;28673;44.412;11.918;2023-08-12T06:16:41;21.00;99.90
43049;DHT22;28673;44.412;11.918;2023-08-12T06:19:07;21.10;99.90
43049;DHT22;28673;44.412;11.918;2023-08-12T06:21:33;21.20;99.90
43049;DHT22;28673;44.412;11.918;2023-08-12T06:23:59;21.30;99.90
43049;DHT22;28673;44.412;11.918;2023-08-12T06:26:25;21.40;99.90
43049;DHT22;28673;44.412;11.918;2023-08-12T06:28:51;21.50;99.70
43049;DHT22;28673;44.412;11.918;2023-08-12T06:31:16;21.50;99.60
43049;DHT22;28673;44.412;11.918;2023-08-12T06:33:42;21.60;99.50
43049;DHT22;28673;44.412;11.918;2023-08-12T06:36:08;21.70;99.40
43049;DHT22;28673;44.412;11.918;2023-08-12T06:38:34;21.80;99.30
43049;DHT22;28673;44.412;11.918;2023-08-12T06:41:00;21.80;99.40
43049;DHT22;28673;44.412;11.918;2023-08-12T06:43:26;21.80;99.50
43049;DHT22;28673;44.412;11.918;2023-08-12T06:45:51;21.90;99.50
43049;DHT22;28673;44.412;11.918;2023-08-12T06:48:17;22.00;99.50
43049;DHT22;28673;44.412;11.918;2023-08-12T06:50:43;22.00;99.50
43049;DHT22;28673;44.412;11.918;2023-08-12T06:53:09;22.10;99.50
43049;DHT22;28673;44.412;11.918;2023-08-12T06:55:35;22.20;99.50
43049;DHT22;28673;44.412;11.918;2023-08-12T06:58:01;22.30;99.50
43049;DHT22;28673;44.412;11.918;2023-08-12T07:00:27;22.40;99.40
43049;DHT22;28673;44.412;11.918;2023-08-12T07:02:52;22.60;99.20
43049;DHT22;28673;44.412;11.918;2023-08-12T07:05:18;22.70;98.90
43049;DHT22;28673;44.412;11.918;2023-08-12T07:07:44;22.90;98.80
43049;DHT22;28673;44.412;11.918;2023-08-12T07:10:10;23.10;98.60
43049;DHT22;28673;44.412;11.918;2023-08-12T07:12:37;23.30;98.30
43049;DHT22;28673;44.412;11.918;2023-08-12T07:15:03;23.40;98.10
43049;DHT22;28673;44.412;11.918;2023-08-12T07:17:29;23.70;97.80
43049;DHT22;28673;44.412;11.918;2023-08-12T07:19:55;23.90;97.60
43049;DHT22;28673;44.412;11.918;2023-08-12T07:22:21;24.20;97.30
43049;DHT22;28673;44.412;11.918;2023-08-12T07:24:47;24.40;97.10
43049;DHT22;28673;44.412;11.918;2023-08-12T07:27:13;24.70;96.50
43049;DHT22;28673;44.412;11.918;2023-08-12T07:29:39;24.90;95.90
43049;DHT22;28673;44.412;11.918;2023-08-12T07:32:05;25.10;95.60
43049;DHT22;28673;44.412;11.918;2023-08-12T07:34:31;25.30;95.30
43049;DHT22;28673;44.412;11.918;2023-08-12T07:36:57;25.50;95.00
43049;DHT22;28673;44.412;11.918;2023-08-12T07:39:23;25.80;94.70
43049;DHT22;28673;44.412;11.918;2023-08-12T07:41:49;26.10;94.20
43049;DHT22;28673;44.412;11.918;2023-08-12T07:44:15;26.30;93.50
43049;DHT22;28673;44.412;11.918;2023-08-12T07:46:40;26.60;93.30
43049;DHT22;28673;44.412;11.918;2023-08-12T07:49:06;26.80;93.30
43049;DHT22;28673;44.412;11.918;2023-08-12T07:51:32;27.00;92.90
43049;DHT22;28673;44.412;11.918;2023-08-12T07:53:58;27.30;92.60
43049;DHT22;28673;44.412;11.918;2023-08-12T07:56:24;27.50;92.00
43049;DHT22;28673;44.412;11.918;2023-08-12T07:58:50;27.60;91.50
43049;DHT22;28673;44.412;11.918;2023-08-12T08:01:16;27.80;91.70
43049;DHT22;28673;44.412;11.918;2023-08-12T08:03:42;28.00;90.90
43049;DHT22;28673;44.412;11.918;2023-08-12T08:06:08;28.10;90.50
43049;DHT22;28673;44.412;11.918;2023-08-12T08:08:34;28.30;90.20
43049;DHT22;28673;44.412;11.918;2023-08-12T08:11:00;28.50;90.00
43049;DHT22;28673;44.412;11.918;2023-08-12T08:13:26;28.70;89.70
43049;DHT22;28673;44.412;11.918;2023-08-12T08:15:52;28.80;88.80
43049;DHT22;28673;44.412;11.918;2023-08-12T08:18:18;29.00;88.40
43049;DHT22;28673;44.412;11.918;2023-08-12T08:20:43;29.20;87.70
43049;DHT22;28673;44.412;11.918;2023-08-12T08:23:10;29.40;86.90
43049;DHT22;28673;44.412;11.918;2023-08-12T08:25:36;29.70;85.40
43049;DHT22;28673;44.412;11.918;2023-08-12T08:28:02;29.90;85.60
43049;DHT22;28673;44.412;11.918;2023-08-12T08:30:28;30.10;85.20
43049;DHT22;28673;44.412;11.918;2023-08-12T08:32:55;30.30;84.60
43049;DHT22;28673;44.412;11.918;2023-08-12T08:35:20;30.40;83.40
43049;DHT22;28673;44.412;11.918;2023-08-12T08:37:47;30.70;82.60
43049;DHT22;28673;44.412;11.918;2023-08-12T08:40:13;30.80;80.60
43049;DHT22;28673;44.412;11.918;2023-08-12T08:42:41;30.90;81.00
43049;DHT22;28673;44.412;11.918;2023-08-12T08:45:13;30.90;80.50
43049;DHT22;28673;44.412;11.918;2023-08-12T08:47:39;31.00;78.60
43049;DHT22;28673;44.412;11.918;2023-08-12T08:50:08;31.10;79.80
43049;DHT22;28673;44.412;11.918;2023-08-12T08:52:34;31.30;79.60
43049;DHT22;28673;44.412;11.918;2023-08-12T08:55:04;31.30;78.50
43049;DHT22;28673;44.412;11.918;2023-08-12T08:57:30;31.50;78.90
43049;DHT22;28673;44.412;11.918;2023-08-12T08:59:56;31.70;78.10
43049;DHT22;28673;44.412;11.918;2023-08-12T09:02:23;31.80;77.60
43049;DHT22;28673;44.412;11.918;2023-08-12T09:04:50;31.90;77.00
43049;DHT22;28673;44.412;11.918;2023-08-12T09:07:18;32.10;75.90
43049;DHT22;28673;44.412;11.918;2023-08-12T09:09:46;32.20;74.40
43049;DHT22;28673;44.412;11.918;2023-08-12T09:12:16;32.30;75.50
43049;DHT22;28673;44.412;11.918;2023-08-12T09:14:42;32.30;74.70
43049;DHT22;28673;44.412;11.918;2023-08-12T09:17:09;32.50;74.90
43049;DHT22;28673;44.412;11.918;2023-08-12T09:19:36;32.60;74.50
43049;DHT22;28673;44.412;11.918;2023-08-12T09:22:06;32.90;74.50
43049;DHT22;28673;44.412;11.918;2023-08-12T09:24:34;33.10;74.30
43049;DHT22;28673;44.412;11.918;2023-08-12T09:27:01;33.30;74.30
43049;DHT22;28673;44.412;11.918;2023-08-12T09:29:34;33.50;73.70
43049;DHT22;28673;44.412;11.918;2023-08-12T09:32:12;33.70;73.10
43049;DHT22;28673;44.412;11.918;2023-08-12T09:34:49;34.00;73.30
43049;DHT22;28673;44.412;11.918;2023-08-12T09:37:18;34.10;71.80
43049;DHT22;28673;44.412;11.918;2023-08-12T09:39:50;34.20;72.30
43049;DHT22;28673;44.412;11.918;2023-08-12T09:42:17;34.40;72.00
43049;DHT22;28673;44.412;11.918;2023-08-12T09:44:44;34.60;71.70
43049;DHT22;28673;44.412;11.918;2023-08-12T09:47:11;34.80;70.90
43049;DHT22;28673;44.412;11.918;2023-08-12T09:49:38;34.90;70.80
43049;DHT22;28673;44.412;11.918;2023-08-12T09:52:05;35.00;70.40
43049;DHT22;28673;44.412;11.918;2023-08-12T09:54:34;35.20;69.70
43049;DHT22;28673;44.412;11.918;2023-08-12T09:57:04;35.20;69.50
43049;DHT22;28673;44.412;11.918;2023-08-12T09:59:34;35.30;70.40
43049;DHT22;28673;44.412;11.918;2023-08-12T10:02:02;35.30;69.70
43049;DHT22;28673;44.412;11.918;2023-08-12T10:04:41;35.40;68.80
43049;DHT22;28673;44.412;11.918;2023-08-12T10:07:11;35.60;66.20
43049;DHT22;28673;44.412;11.918;2023-08-12T10:09:40;35.60;68.50
43049;DHT22;28673;44.412;11.918;2023-08-12T10:12:07;35.70;67.90
43049;DHT22;28673;44.412;11.918;2023-08-12T10:14:33;35.90;67.90
43049;DHT22;28673;44.412;11.918;2023-08-12T10:16:59;36.00;66.60
43049;DHT22;28673;44.412;11.918;2023-08-12T10:19:26;36.10;66.70
43049;DHT22;28673;44.412;11.918;2023-08-12T10:21:56;36.20;67.10
43049;DHT22;28673;44.412;11.918;2023-08-12T10:24:26;36.30;66.90
43049;DHT22;28673;44.412;11.918;2023-08-12T10:26:53;36.50;67.30
43049;DHT22;28673;44.412;11.918;2023-08-12T10:29:20;36.40;66.30
43049;DHT22;28673;44.412;11.918;2023-08-12T10:31:47;36.40;66.90
43049;DHT22;28673;44.412;11.918;2023-08-12T10:34:23;36.50;66.50
43049;DHT22;28673;44.412;11.918;2023-08-12T10:36:56;36.60;65.40
43049;DHT22;28673;44.412;11.918;2023-08-12T10:39:26;36.70;65.50
43049;DHT22;28673;44.412;11.918;2023-08-12T10:41:55;36.80;64.30
43049;DHT22;28673;44.412;11.918;2023-08-12T10:44:23;37.00;65.00
43049;DHT22;28673;44.412;11.918;2023-08-12T10:46:52;37.20;65.40
43049;DHT22;28673;44.412;11.918;2023-08-12T10:49:20;37.30;65.30
43049;DHT22;28673;44.412;11.918;2023-08-12T10:54:24;37.50;64.90
43049;DHT22;28673;44.412;11.918;2023-08-12T10:59:47;38.00;64.00
43049;DHT22;28673;44.412;11.918;2023-08-12T11:02:17;38.20;62.80
43049;DHT22;28673;44.412;11.918;2023-08-12T11:04:56;38.50;63.60
43049;DHT22;28673;44.412;11.918;2023-08-12T11:10:14;38.70;61.20
43049;DHT22;28673;44.412;11.918;2023-08-12T11:12:46;38.60;62.40
43049;DHT22;28673;44.412;11.918;2023-08-12T11:15:13;38.50;63.00
43049;DHT22;28673;44.412;11.918;2023-08-12T11:17:41;38.60;62.60
43049;DHT22;28673;44.412;11.918;2023-08-12T11:20:12;38.90;62.60
43049;DHT22;28673;44.412;11.918;2023-08-12T11:22:43;39.10;62.70
43049;DHT22;28673;44.412;11.918;2023-08-12T11:25:12;39.10;62.70
43049;DHT22;28673;44.412;11.918;2023-08-12T11:27:43;39.10;62.30
43049;DHT22;28673;44.412;11.918;2023-08-12T11:30:11;39.00;61.60
43049;DHT22;28673;44.412;11.918;2023-08-12T11:32:38;39.20;61.40
43049;DHT22;28673;44.412;11.918;2023-08-12T11:35:07;39.50;61.60
43049;DHT22;28673;44.412;11.918;2023-08-12T11:37:33;39.50;61.30
43049;DHT22;28673;44.412;11.918;2023-08-12T11:40:01;39.50;61.10
43049;DHT22;28673;44.412;11.918;2023-08-12T11:42:29;39.60;61.40
43049;DHT22;28673;44.412;11.918;2023-08-12T11:44:55;39.50;61.50
43049;DHT22;28673;44.412;11.918;2023-08-12T11:47:23;39.50;61.50
43049;DHT22;28673;44.412;11.918;2023-08-12T11:49:52;39.50;61.40
43049;DHT22;28673;44.412;11.918;2023-08-12T11:52:20;39.60;60.80
43049;DHT22;28673;44.412;11.918;2023-08-12T11:54:46;39.60;59.70
43049;DHT22;28673;44.412;11.918;2023-08-12T11:57:14;39.70;60.90
43049;DHT22;28673;44.412;11.918;2023-08-12T11:59:40;39.70;60.60
43049;DHT22;28673;44.412;11.918;2023-08-12T12:02:07;39.60;59.70
43049;DHT22;28673;44.412;11.918;2023-08-12T12:04:34;39.70;60.20
43049;DHT22;28673;44.412;11.918;2023-08-12T12:07:00;39.60;60.30
43049;DHT22;28673;44.412;11.918;2023-08-12T12:09:32;39.50;60.70
43049;DHT22;28673;44.412;11.918;2023-08-12T12:11:59;39.50;60.20
43049;DHT22;28673;44.412;11.918;2023-08-12T12:14:26;39.40;60.10
43049;DHT22;28673;44.412;11.918;2023-08-12T12:16:52;39.40;60.30
43049;DHT22;28673;44.412;11.918;2023-08-12T12:19:22;39.50;60.40
43049;DHT22;28673;44.412;11.918;2023-08-12T12:21:51;39.50;59.50
43049;DHT22;28673;44.412;11.918;2023-08-12T12:24:18;39.70;60.30
43049;DHT22;28673;44.412;11.918;2023-08-12T12:26:45;39.70;60.40
43049;DHT22;28673;44.412;11.918;2023-08-12T12:29:13;39.70;59.60
43049;DHT22;28673;44.412;11.918;2023-08-12T12:31:40;39.70;59.90
43049;DHT22;28673;44.412;11.918;2023-08-12T12:34:08;39.60;60.10
43049;DHT22;28673;44.412;11.918;2023-08-12T12:36:37;39.60;59.50
43049;DHT22;28673;44.412;11.918;2023-08-12T12:39:04;39.50;59.50
43049;DHT22;28673;44.412;11.918;2023-08-12T12:41:30;39.40;59.90
43049;DHT22;28673;44.412;11.918;2023-08-12T12:43:56;39.30;59.90
43049;DHT22;28673;44.412;11.918;2023-08-12T12:46:23;39.40;59.70
43049;DHT22;28673;44.412;11.918;2023-08-12T12:48:49;39.40;59.20
43049;DHT22;28673;44.412;11.918;2023-08-12T12:51:15;39.40;59.60
43049;DHT22;28673;44.412;11.918;2023-08-12T12:53:41;39.40;60.30
43049;DHT22;28673;44.412;11.918;2023-08-12T12:56:07;39.40;60.10
43049;DHT22;28673;44.412;11.918;2023-08-12T12:58:36;39.20;59.40
43049;DHT22;28673;44.412;11.918;2023-08-12T13:01:04;39.10;60.30
43049;DHT22;28673;44.412;11.918;2023-08-12T13:03:31;39.00;60.00
43049;DHT22;28673;44.412;11.918;2023-08-12T13:05:58;39.00;60.30
43049;DHT22;28673;44.412;11.918;2023-08-12T13:08:24;39.00;60.80
43049;DHT22;28673;44.412;11.918;2023-08-12T13:10:51;39.00;60.40
43049;DHT22;28673;44.412;11.918;2023-08-12T13:13:19;39.00;60.70
43049;DHT22;28673;44.412;11.918;2023-08-12T13:15:45;39.10;61.10
43049;DHT22;28673;44.412;11.918;2023-08-12T13:18:11;39.20;61.80
43049;DHT22;28673;44.412;11.918;2023-08-12T13:20:37;39.30;61.20
43049;DHT22;28673;44.412;11.918;2023-08-12T13:23:04;39.20;60.80
43049;DHT22;28673;44.412;11.918;2023-08-12T13:25:32;39.10;60.00
43049;DHT22;28673;44.412;11.918;2023-08-12T13:28:00;39.10;60.10
43049;DHT22;28673;44.412;11.918;2023-08-12T13:30:27;39.00;60.90
43049;DHT22;28673;44.412;11.918;2023-08-12T13:32:54;39.00;61.00
43049;DHT22;28673;44.412;11.918;2023-08-12T13:35:20;39.10;61.10
43049;DHT22;28673;44.412;11.918;2023-08-12T13:37:46;39.10;60.90
43049;DHT22;28673;44.412;11.918;2023-08-12T13:40:12;39.20;60.70
43049;DHT22;28673;44.412;11.918;2023-08-12T13:42:43;39.30;60.70
43049;DHT22;28673;44.412;11.918;2023-08-12T13:45:11;39.20;60.40
43049;DHT22;28673;44.412;11.918;2023-08-12T13:47:38;39.10;60.90
43049;DHT22;28673;44.412;11.918;2023-08-12T13:50:04;38.90;61.10
43049;DHT22;28673;44.412;11.918;2023-08-12T13:52:31;39.00;61.70
43049;DHT22;28673;44.412;11.918;2023-08-12T13:54:57;38.80;61.20
43049;DHT22;28673;44.412;11.918;2023-08-12T13:57:23;38.60;61.30
43049;DHT22;28673;44.412;11.918;2023-08-12T13:59:50;38.50;61.30
43049;DHT22;28673;44.412;11.918;2023-08-12T14:02:16;38.40;61.60
43049;DHT22;28673;44.412;11.918;2023-08-12T14:04:42;38.30;61.70
43049;DHT22;28673;44.412;11.918;2023-08-12T14:07:07;38.30;61.80
43049;DHT22;28673;44.412;11.918;2023-08-12T14:09:34;38.20;62.10
43049;DHT22;28673;44.412;11.918;2023-08-12T14:12:00;38.30;62.00
43049;DHT22;28673;44.412;11.918;2023-08-12T14:14:26;38.30;62.00
43049;DHT22;28673;44.412;11.918;2023-08-12T14:16:55;38.10;61.40
43049;DHT22;28673;44.412;11.918;2023-08-12T14:19:21;38.00;61.80
43049;DHT22;28673;44.412;11.918;2023-08-12T14:21:47;38.00;62.20
43049;DHT22;28673;44.412;11.918;2023-08-12T14:24:13;38.00;62.20
43049;DHT22;28673;44.412;11.918;2023-08-12T14:26:39;38.10;62.20
43049;DHT22;28673;44.412;11.918;2023-08-12T14:29:06;38.20;61.90
43049;DHT22;28673;44.412;11.918;2023-08-12T14:31:32;38.40;61.90
43049;DHT22;28673;44.412;11.918;2023-08-12T14:33:58;38.40;61.80
43049;DHT22;28673;44.412;11.918;2023-08-12T14:36:25;38.50;61.80
43049;DHT22;28673;44.412;11.918;2023-08-12T14:38:51;38.40;61.90
43049;DHT22;28673;44.412;11.918;2023-08-12T14:41:17;38.40;61.80
43049;DHT22;28673;44.412;11.918;2023-08-12T14:43:43;38.30;61.80
43049;DHT22;28673;44.412;11.918;2023-08-12T14:46:09;38.40;61.80
43049;DHT22;28673;44.412;11.918;2023-08-12T14:48:35;38.30;61.90
43049;DHT22;28673;44.412;11.918;2023-08-12T14:51:01;38.30;62.10
43049;DHT22;28673;44.412;11.918;2023-08-12T14:53:27;38.30;61.90
43049;DHT22;28673;44.412;11.918;2023-08-12T14:55:53;38.20;61.90
43049;DHT22;28673;44.412;11.918;2023-08-12T14:58:20;38.20;62.20
43049;DHT22;28673;44.412;11.918;2023-08-12T15:00:50;38.00;62.10
43049;DHT22;28673;44.412;11.918;2023-08-12T15:03:16;38.00;61.80
43049;DHT22;28673;44.412;11.918;2023-08-12T15:05:43;37.90;62.20
43049;DHT22;28673;44.412;11.918;2023-08-12T15:08:08;37.70;62.30
43049;DHT22;28673;44.412;11.918;2023-08-12T15:10:35;37.70;62.70
43049;DHT22;28673;44.412;11.918;2023-08-12T15:13:01;37.60;62.80
43049;DHT22;28673;44.412;11.918;2023-08-12T15:15:27;37.70;63.00
43049;DHT22;28673;44.412;11.918;2023-08-12T15:17:53;37.70;62.50
43049;DHT22;28673;44.412;11.918;2023-08-12T15:20:19;37.50;62.60
43049;DHT22;28673;44.412;11.918;2023-08-12T15:22:45;37.30;62.70